Nearby METAR Reports

 

KJNX - Smithfield Johns, North Carolina, USA
Distance from station: E 11mi, 17km
Updated: Fri, 17-Aug-2018 9:15pm EDT
Clear
Clear
 Wind from calm
Wind: Calm
Temperature: 77°F , 25°C
Dew Point: 77°F , 25°C
Humidity: 100%
Barometer: 30.05 inHg , 1017.6 hPa
Clouds: Clear
Visibility: 10 miles , 16 km
2018/08/18 01:15 KJNX 180115Z AUTO 00000KT 10SM CLR 25/25 A3005 RMK AO2
KHRJ - Erwin/Harnett Co, North Carolina, USA
Distance from station: SW 14mi, 22km
Updated: Fri, 17-Aug-2018 8:50pm EDT
Clear
Clear
 Wind from calm
Wind: Calm
Temperature: 82°F , 28°C
Heat Index: 90°F , 32°C
Dew Point: 77°F , 25°C
Humidity: 84%
Barometer: 30.06 inHg , 1017.9 hPa
Clouds: Clear
Visibility: 10 miles , 16 km
2018/08/18 00:50 KHRJ 180050Z AUTO 00000KT 10SM CLR 28/25 A3006 RMK AO2 T02750246
 
KRDU - Raleigh/Durham, North Carolina, USA
Distance from station: NNW 26mi, 42km
Updated: Fri, 17-Aug-2018 8:51pm EDT
Mostly cloudy
Mostly cloudy
 Wind from SSW
Wind: SSW 8 mph , 13 km/h
Temperature: 82°F , 28°C
Heat Index: 86°F , 30°C
Dew Point: 70°F , 21°C
Humidity: 66%
Barometer: 30.05 inHg , 1017.6 hPa
Clouds: Mostly cloudy
Visibility: 10 miles , 16 km
Cloud details: Few Clouds 5000 ft
Mostly cloudy 25000 ft
2018/08/18 00:51 KRDU 180051Z 21007KT 10SM FEW050 BKN250 28/21 A3005 RMK AO2 SLP171 T02780211
KTTA - Sanford, North Carolina, USA
Distance from station: W 30mi, 48km
Updated: Fri, 17-Aug-2018 9:00pm EDT
Clear
Clear
 Wind from calm
Wind: Calm
Temperature: 77°F , 25°C
Dew Point: 73°F , 23°C
Humidity: 89%
Barometer: 30.05 inHg , 1017.6 hPa
Clouds: Clear
Visibility: 10 miles , 16 km
2018/08/18 01:00 KTTA 180100Z AUTO 00000KT 10SM CLR 25/23 A3005 RMK AO2 T02500231
 
KGWW - Goldsboro/Wayne, North Carolina, USA
Distance from station: E 34mi, 55km
Updated: Fri, 17-Aug-2018 8:55pm EDT
Clear
Clear
 Wind from SSW
Wind: SSW 5 mph , 7 km/h
Temperature: 81°F , 27°C
Heat Index: 87°F , 31°C
Dew Point: 75°F , 24°C
Humidity: 84%
Barometer: 30.05 inHg , 1017.6 hPa
Clouds: Clear
Visibility: 10 miles , 16 km
2018/08/18 00:55 KGWW 180055Z AUTO 20004KT 10SM CLR 27/24 A3005 RMK AO2 T02680240
KFBG - Fort Bragg/Simmo, North Carolina, USA
Distance from station: SSW 35mi, 56km
Updated: Fri, 17-Aug-2018 8:56pm EDT
Clear
Clear
 Wind from S
Wind: S 5 mph , 7 km/h
Temperature: 84°F , 29°C
Heat Index: 90°F , 32°C
Dew Point: 73°F , 23°C
Humidity: 70%
Barometer: 30.05 inHg , 1017.6 hPa
Clouds: Clear
Visibility: 10 miles , 16 km
2018/08/18 00:56 KFBG 180056Z AUTO 18004KT 10SM CLR 29/23 A3005 RMK AO2 SLP176 T02930232
 
KPOB - Pope Afb, North Carolina, USA
Distance from station: SW 36mi, 57km
Updated: Fri, 17-Aug-2018 8:56pm EDT
Clear
Clear
 Wind from SSW
Wind: SSW 6 mph , 9 km/h
Temperature: 86°F , 30°C
Heat Index: 93°F , 34°C
Dew Point: 73°F , 23°C
Humidity: 66%
Barometer: 30.05 inHg , 1017.6 hPa
Clouds: Clear
Visibility: 10 miles , 16 km
2018/08/18 00:56 KPOB 180056Z AUTO 20005KT 10SM CLR 30/23 A3005 RMK AO2 SLP176 T02960230 $
KLHZ - Louisburg/Frankl, North Carolina, USA
Distance from station: NNE 36mi, 58km
Updated: Fri, 17-Aug-2018 8:50pm EDT
Clear
Clear
 
Temperature: 77°F , 25°C
Dew Point: 73°F , 23°C
Humidity: 89%
Barometer: 30.07 inHg , 1018.3 hPa
Clouds: Clear
Visibility: 10 miles , 16 km
2018/08/18 00:50 KLHZ 180050Z AUTO 10SM CLR 25/23 A3007 RMK AO2
 
KGSB - Goldsboro/S. J., North Carolina, USA
Distance from station: ESE 37mi, 60km
Updated: Fri, 17-Aug-2018 8:56pm EDT
Clear
Clear
 Wind from S
Wind: S 5 mph , 7 km/h
Temperature: 82°F , 28°C
Heat Index: 87°F , 31°C
Dew Point: 73°F , 23°C
Humidity: 74%
Barometer: 30.04 inHg , 1017.3 hPa
Clouds: Clear
Visibility: 10 miles , 16 km
2018/08/18 00:56 KGSB 180056Z AUTO 19004KT 10SM CLR 28/23 A3004 RMK AO2 SLP174 T02810225 $
KIGX - Chapel Hill, North Carolina, USA
Distance from station: NW 39mi, 63km
Updated: Fri, 27-Apr-2018 1:56pm EDT
NOT Current
Partly cloudy
Partly cloudy
 Wind from WNW
Wind: WNW 12 mph , 19 km/h
Temperature: 70°F , 21°C
Dew Point: 54°F , 12°C
Humidity: 57%
Barometer: 29.78 inHg , 1008.5 hPa
Clouds: Partly cloudy
Visibility: 10 miles , 16 km
Cloud details: Few Clouds 3600 ft
Partly cloudy 6000 ft
2018/04/27 17:56 KIGX 271756Z AUTO 29010KT 10SM FEW036 SCT060 21/12 A2978 RMK AO2 SLP080 T02060117 10211 20144 58007
 
KCTZ - Clinton, North Carolina, USA
Distance from station: SSE 40mi, 64km
Updated: Fri, 17-Aug-2018 8:50pm EDT
Clear
Clear
 Wind from S
Wind: S 5 mph , 7 km/h
Temperature: 82°F , 28°C
Heat Index: 90°F , 32°C
Dew Point: 77°F , 25°C
Humidity: 84%
Barometer: 30.07 inHg , 1018.3 hPa
Clouds: Clear
Visibility: 10 miles , 16 km
2018/08/18 00:50 KCTZ 180050Z AUTO 18004KT 10SM CLR 28/25 A3007 RMK AO2 T02770250
KFAY - Fayetteville, North Carolina, USA
Distance from station: SSW 42mi, 67km
Updated: Fri, 17-Aug-2018 8:53pm EDT
Clear
Clear
 Wind from S
Wind: S 6 mph , 9 km/h
Temperature: 82°F , 28°C
Heat Index: 87°F , 31°C
Dew Point: 73°F , 23°C
Humidity: 74%
Barometer: 30.06 inHg , 1017.9 hPa
Clouds: Clear
Visibility: 10 miles , 16 km
2018/08/18 00:53 KFAY 180053Z 19005KT 10SM CLR 28/23 A3006 RMK AO2 SLP171 T02830233
 
KRWI - Rocky Mount, North Carolina, USA
Distance from station: ENE 44mi, 70km
Updated: Fri, 17-Aug-2018 8:53pm EDT
Light rain, Few clouds
Light rain, Few clouds
 Wind from S
Wind: S 6 mph , 9 km/h
Temperature: 81°F , 27°C
Heat Index: 86°F , 30°C
Dew Point: 73°F , 23°C
Humidity: 79%
Barometer: 30.05 inHg , 1017.6 hPa
Summary: Light rain
Clouds: Few Clouds
Visibility: 10 miles , 16 km
Cloud details: Few Clouds 7000 ft
Few Clouds 10000 ft
2018/08/18 00:53 KRWI 180053Z AUTO 19005KT 10SM -RA FEW070 FEW100 27/23 A3005 RMK AO2 RAB47 SLP173 P0000 T02670228
KDPL - Kenansville/Dupl, North Carolina, USA
Distance from station: SE 50mi, 81km
Updated: Fri, 17-Aug-2018 8:50pm EDT
Clear
Clear
 Wind from calm
Wind: Calm
Temperature: 82°F , 28°C
Heat Index: 89°F , 32°C
Dew Point: 75°F , 24°C
Humidity: 79%
Barometer: 30.08 inHg , 1018.6 hPa
Clouds: Clear
Visibility: 10 miles , 16 km
2018/08/18 00:50 KDPL 180050Z AUTO 00000KT 10SM CLR 28/24 A3008 RMK AO2